Terminal Aerodrome Forecast
Issued by NWS Rapid City, SD

Home | Current Version | Previous Version | Graphics & Text | Print | Product List | Glossary On
Versions: 1 2 3 4 5 6 7 8 9 10 11 12 13 14 15 16 17 18
000
FTUS43 KUNR 172300
TAFRAP
TAF
KRAP 172326Z 1800/1824 06007KT P6SM OVC007
     FM180300 12006KT 5SM BR OVC004
     FM180600 14005KT 1SM BR OVC002
     FM181700 19005KT P6SM SKC=

USA.gov is the U.S. government's official web portal to all federal, state and local government web resources and services.